Latest Weather Observations for Penrith

IDN60901

Issued at 9:35 pm EST Friday 22 August 2014 (issued every 10 minutes, with the page automatically refreshed every 10 minutes)

About weather observations | Map of Sydney area stations | Latest observations for Sydney area | Other Formats
Station Details ID: 067113 Name: PENRITH LAKES AWS Lat: -33.72 Lon: 150.68 Height: 24.7 m
Data from the previous 72 hours. | See also: Recent months at Penrith
Date/Time
EST
Tmp

°C
App
Tmp
°C
Dew
Point
°C
Rel
Hum
%
Delta-T

°C
Wind Press
QNH
hPa
Press
MSL
hPa
Rain
since
9 am
mm
Dir
 
Spd
km/h
Gust
km/h
Spd
kts
Gust
kts
22/09:30pm 10.8 10.7 9.4 91 0.7 S 0 0 0 0 - - 0.2
22/09:00pm 10.7 10.4 8.8 88 0.9 CALM 0 0 0 0 - - 0.2
22/08:30pm 11.5 11.0 9.4 87 1.1 S 2 4 1 2 - - 0.2
22/08:00pm 11.7 10.3 8.7 82 1.5 SW 6 6 3 3 - - 0.2
22/07:30pm 12.8 11.8 8.7 76 2.1 SSW 4 6 2 3 - - 0.2
22/07:00pm 13.8 12.2 8.8 72 2.5 SSE 7 9 4 5 - - 0.2
22/06:30pm 14.7 13.3 8.9 68 3.0 S 6 9 3 5 - - 0.2
22/06:00pm 14.8 12.8 8.7 67 3.1 SSE 9 15 5 8 - - 0.2
22/05:30pm 15.0 12.9 8.3 64 3.4 SE 9 11 5 6 - - 0.2
22/05:00pm 16.1 13.6 8.1 59 4.0 SE 11 15 6 8 - - 0.2
22/04:30pm 17.5 15.7 7.8 53 4.9 SE 7 11 4 6 - - 0.2
22/04:00pm 17.2 16.4 8.1 55 4.6 SSE 2 4 1 2 - - 0.2
22/03:30pm 17.7 16.0 7.7 52 5.1 SSW 6 9 3 5 - - 0.2
22/03:00pm 17.9 15.8 8.2 53 5.0 S 9 13 5 7 - - 0.2
22/02:30pm 17.7 16.3 7.4 51 5.2 SSW 4 6 2 3 - - 0.2
22/02:00pm 17.4 15.9 8.3 55 4.7 SW 6 9 3 5 - - 0.2
22/01:30pm 17.1 15.4 8.5 57 4.4 SW 7 13 4 7 - - 0.2
22/01:00pm 16.6 14.6 8.6 59 4.1 S 9 13 5 7 - - 0.2
22/12:30pm 17.7 16.2 8.6 55 4.7 SW 6 7 3 4 - - 0.0
22/12:00pm 16.4 14.7 8.4 59 4.1 SSW 7 11 4 6 - - 0.0
22/11:30am 17.2 15.3 8.9 58 4.3 S 9 13 5 7 - - 0.0
22/11:00am 17.0 15.4 8.7 58 4.3 S 7 11 4 6 - - 0.0
22/10:30am 16.4 14.8 8.9 61 3.9 S 7 13 4 7 - - 0.0
22/10:00am 16.3 14.5 9.3 63 3.6 S 9 17 5 9 - - 0.0
22/09:30am 15.8 13.4 8.8 63 3.6 SSW 11 15 6 8 - - 0.0
22/09:00am 15.0 13.1 9.1 68 3.0 S 9 15 5 8 - - 0.2
22/08:30am 14.0 12.1 9.0 72 2.5 SSW 9 15 5 8 - - 0.2
22/08:00am 13.4 11.9 9.1 75 2.2 SSW 7 13 4 7 - - 0.2
22/07:30am 12.7 11.2 9.2 79 1.8 SSW 7 11 4 6 - - 0.2
22/07:00am 12.0 10.8 9.6 85 1.2 SSW 6 7 3 4 - - 0.2
22/06:30am 11.5 10.7 9.8 89 0.9 SW 4 6 2 3 - - 0.2
22/06:00am 11.5 11.1 9.9 90 0.8 NW 2 2 1 1 - - 0.2
22/05:30am 11.5 10.6 9.4 87 1.1 NW 4 6 2 3 - - 0.2
22/05:00am 11.9 11.0 9.1 83 1.4 E 4 6 2 3 - - 0.2
22/04:30am 12.1 11.1 8.8 80 1.6 SSW 4 6 2 3 - - 0.2
22/04:00am 12.1 10.7 8.9 81 1.6 SW 6 7 3 4 - - 0.2
22/03:30am 12.0 10.6 9.0 82 1.5 S 6 9 3 5 - - 0.2
22/03:00am 12.2 10.8 8.7 79 1.7 SSE 6 7 3 4 - - 0.2
22/02:30am 12.1 10.6 8.6 79 1.7 SW 6 7 3 4 - - 0.2
22/02:00am 12.2 11.1 8.5 78 1.8 S 4 7 2 4 - - 0.2
22/01:30am 12.4 10.9 8.5 77 1.9 S 6 11 3 6 - - 0.2
22/01:00am 12.4 10.5 8.9 79 1.8 SSW 9 13 5 7 - - 0.2
22/12:30am 12.1 10.6 9.1 82 1.5 SSW 7 9 4 5 - - 0.2
22/12:00am 12.1 10.6 9.1 82 1.5 SSW 7 9 4 5 - - 0.2
 
Date/Time
EST
Tmp

°C
App
Tmp
°C
Dew
Point
°C
Rel
Hum
%
Delta-T

°C
Wind Press
QNH
hPa
Press
MSL
hPa
Rain
since
9 am
mm
Dir
 
Spd
km/h
Gust
km/h
Spd
kts
Gust
kts
21/11:30pm 12.1 9.8 9.1 82 1.5 SSW 11 17 6 9 - - 0.2
21/11:00pm 12.3 9.6 9.0 80 1.7 SSW 13 17 7 9 - - 0.2
21/10:30pm 12.5 9.8 9.0 79 1.8 SSW 13 19 7 10 - - 0.0
21/10:00pm 12.6 10.3 8.9 78 1.9 S 11 17 6 9 - - 0.0
21/09:30pm 12.5 10.2 9.1 80 1.7 SSW 11 15 6 8 - - 0.0
21/09:00pm 12.3 10.4 9.0 80 1.7 SSW 9 11 5 6 - - 0.0
21/08:30pm 12.7 11.0 8.4 75 2.1 S 7 9 4 5 - - 0.0
21/08:00pm 13.0 10.9 8.1 72 2.4 SSW 9 13 5 7 - - 0.0
21/07:30pm 13.0 10.8 7.9 71 2.5 SSW 9 13 5 7 - - 0.0
21/07:00pm 13.0 11.2 7.9 71 2.5 SW 7 9 4 5 - - 0.0
21/06:30pm 13.0 11.3 7.7 70 2.6 S 6 9 3 5 - - 0.0
21/06:00pm 13.9 11.7 7.7 66 3.1 S 9 13 5 7 - - 0.0
21/05:30pm 14.8 11.7 7.4 61 3.7 SSE 13 19 7 10 - - 0.0
21/05:00pm 15.5 12.2 6.5 55 4.4 SSE 13 17 7 9 - - 0.0
21/04:30pm 16.4 12.3 6.0 50 5.0 SE 17 22 9 12 - - 0.0
21/04:00pm 16.5 13.2 6.3 51 5.0 SE 13 19 7 10 - - 0.0
21/03:30pm 16.6 14.2 7.0 53 4.8 SE 9 15 5 8 - - 0.0
21/03:00pm 16.9 12.5 6.7 51 5.0 SE 19 24 10 13 - - 0.0
21/02:30pm 17.8 14.4 7.5 51 5.2 S 15 22 8 12 - - 0.0
21/02:00pm 16.1 13.8 9.1 63 3.6 S 11 17 6 9 - - 0.0
21/01:30pm 17.0 14.5 8.2 56 4.5 SW 11 20 6 11 - - 0.0
21/01:00pm 16.4 14.3 8.4 59 4.1 SSE 9 15 5 8 - - 0.0
21/12:30pm 16.1 14.5 8.6 61 3.8 SSE 7 11 4 6 - - 0.0
21/12:00pm 15.6 13.7 9.1 65 3.3 S 9 15 5 8 - - 0.0
21/11:30am 15.3 13.5 7.8 61 3.7 SSW 7 9 4 5 - - 0.0
21/11:00am 15.8 14.9 7.8 59 4.0 SSW 2 6 1 3 - - 0.0
21/10:30am 14.6 12.9 7.6 63 3.5 SSW 6 7 3 4 - - 0.0
21/10:00am 14.0 12.3 8.2 68 2.9 SSW 7 11 4 6 - - 0.0
21/09:30am 13.5 12.4 8.6 72 2.5 SSW 4 7 2 4 - - 0.0
21/09:00am 12.9 11.6 7.8 71 2.5 S 4 7 2 4 - - 0.0
21/08:30am 12.2 10.5 7.7 74 2.2 S 6 7 3 4 - - 0.0
21/08:00am 10.9 10.1 8.1 83 1.4 SSE 2 6 1 3 - - 0.0
21/07:30am 10.2 9.7 7.8 85 1.2 CALM 0 0 0 0 - - 0.0
21/07:00am 9.4 8.3 7.0 85 1.1 S 2 6 1 3 - - 0.0
21/06:30am 9.1 8.0 6.7 85 1.1 NNE 2 6 1 3 - - 0.0
21/06:00am 9.1 7.6 6.7 85 1.1 NW 4 6 2 3 - - 0.0
21/05:30am 9.1 7.0 6.5 84 1.2 N 7 9 4 5 - - 0.0
21/05:00am 9.0 7.5 6.6 85 1.1 NE 4 4 2 2 - - 0.0
21/04:30am 8.8 8.0 6.4 85 1.1 CALM 0 4 0 2 - - 0.0
21/04:00am 8.5 6.8 6.0 84 1.1 SSE 4 6 2 3 - - 0.0
21/03:30am 8.2 6.5 5.7 84 1.1 SSE 4 6 2 3 - - 0.0
21/03:00am 8.2 6.6 6.2 87 0.9 SSW 4 6 2 3 - - 0.0
21/02:30am 8.0 7.0 5.8 86 1.0 CALM 0 0 0 0 - - 0.0
21/02:00am 7.8 6.1 5.8 87 0.9 ENE 4 7 2 4 - - 0.0
21/01:30am 8.3 7.4 5.9 85 1.1 CALM 0 4 0 2 - - 0.0
21/01:00am 8.2 6.4 5.3 82 1.3 SE 4 6 2 3 - - 0.0
21/12:30am 8.8 6.6 5.4 79 1.5 SSW 6 7 3 4 - - 0.0
21/12:00am 8.2 6.0 5.5 83 1.2 S 6 9 3 5 - - 0.0
 
Date/Time
EST
Tmp

°C
App
Tmp
°C
Dew
Point
°C
Rel
Hum
%
Delta-T

°C
Wind Press
QNH
hPa
Press
MSL
hPa
Rain
since
9 am
mm
Dir
 
Spd
km/h
Gust
km/h
Spd
kts
Gust
kts
20/11:30pm 9.0 6.9 5.7 80 1.5 S 6 7 3 4 - - 0.0
20/11:00pm 8.8 7.0 5.5 80 1.5 SSW 4 6 2 3 - - 0.0
20/10:30pm 9.3 7.2 5.7 78 1.6 S 6 7 3 4 - - 0.0
20/10:00pm 9.1 7.0 5.8 80 1.5 S 6 7 3 4 - - 0.0
20/09:30pm 9.5 7.4 5.7 77 1.7 SW 6 6 3 3 - - 0.0
20/09:00pm 9.9 7.8 5.9 76 1.8 SSW 6 7 3 4 - - 0.0
20/08:30pm 10.2 8.1 5.8 74 2.0 S 6 7 3 4 - - 0.0
20/08:00pm 10.5 8.6 6.6 77 1.8 SW 6 7 3 4 - - 0.0
20/07:30pm 11.1 8.9 5.4 68 2.6 SW 6 6 3 3 - - 0.0
20/07:00pm 12.9 10.8 5.8 62 3.3 S 6 9 3 5 - - 0.0
20/06:30pm 12.5 11.5 5.7 63 3.2 CALM 0 4 0 2 - - 0.0
20/06:00pm 13.1 11.6 5.0 58 3.8 ESE 2 4 1 2 - - 0.0
20/05:30pm 13.3 10.8 5.0 57 3.9 ESE 7 13 4 7 - - 0.0
20/05:00pm 14.5 11.2 4.8 52 4.5 ESE 11 17 6 9 - - 0.0
20/04:30pm 16.1 13.0 5.7 50 5.0 E 11 17 6 9 - - 0.0
20/04:00pm 16.7 14.0 5.6 48 5.4 E 9 17 5 9 - - 0.0
20/03:30pm 17.0 13.8 5.3 46 5.6 ESE 11 15 6 8 - - 0.0
20/03:00pm 18.0 15.6 5.2 43 6.2 ESE 7 15 4 8 - - 0.0
20/02:30pm 16.7 14.2 4.7 45 5.7 ESE 7 13 4 7 - - 0.0
20/02:00pm 17.5 14.6 4.5 42 6.2 SE 9 15 5 8 - - 0.0
20/01:30pm 16.9 13.9 3.9 42 6.1 SSE 9 17 5 9 - - 0.0
20/01:00pm 16.8 13.9 4.5 44 5.8 S 9 13 5 7 - - 0.0
20/12:30pm 16.9 14.3 4.3 43 5.9 SSE 7 11 4 6 - - 0.0
20/12:00pm 17.0 13.8 5.0 45 5.7 S 11 20 6 11 - - 0.0
20/11:30am 17.0 14.2 5.0 45 5.7 S 9 13 5 7 - - 0.0
20/11:00am 16.7 13.5 5.0 46 5.6 SSW 11 17 6 9 - - 0.0
20/10:30am 15.6 11.3 5.2 50 4.9 SSW 17 22 9 12 - - 0.0
20/10:00am 15.5 12.1 5.7 52 4.7 SSW 13 22 7 12 - - 0.0
20/09:30am 14.4 9.7 5.0 53 4.4 SSW 19 28 10 15 - - 0.0
20/09:00am 13.6 9.5 4.5 54 4.2 SSW 15 22 8 12 - - 1.2
20/08:30am 12.6 8.9 4.3 57 3.8 SW 13 22 7 12 - - 1.2
20/08:00am 12.4 8.7 4.6 59 3.6 SSW 13 17 7 9 - - 1.2
20/07:30am 12.2 9.3 4.7 60 3.4 SSW 9 15 5 8 - - 1.2
20/07:00am 11.8 7.0 4.8 62 3.2 SSW 19 24 10 13 - - 1.2
20/06:30am 11.6 9.0 4.1 60 3.4 SSW 7 11 4 6 - - 1.2
20/06:00am 11.0 8.7 4.7 65 2.8 SW 6 9 3 5 - - 1.2
20/05:30am 11.3 7.3 5.0 65 2.9 SSW 15 28 8 15 - - 1.2
20/05:00am 11.8 8.4 3.8 58 3.6 SSW 11 17 6 9 - - 1.2
20/04:30am 11.6 8.6 4.3 61 3.3 SW 9 15 5 8 - - 1.2
20/04:00am 11.8 8.7 3.6 57 3.6 SSW 9 13 5 7 - - 1.2
20/03:30am 11.4 7.9 3.4 58 3.5 S 11 19 6 10 - - 1.2
20/03:00am 10.6 7.0 3.2 60 3.2 S 11 15 6 8 - - 1.2
20/02:30am 10.6 7.0 3.2 60 3.2 SSW 11 17 6 9 - - 1.2
20/02:00am 10.5 7.3 3.1 60 3.2 SSW 9 13 5 7 - - 1.2
20/01:30am 10.8 7.3 3.4 60 3.2 SW 11 17 6 9 - - 1.2
20/01:00am 10.8 8.0 3.1 59 3.4 SSW 7 11 4 6 - - 1.2
20/12:30am 11.3 7.7 2.9 56 3.7 SSW 11 17 6 9 - - 1.2
20/12:00am 11.6 8.0 3.1 56 3.7 SSW 11 19 6 10 - - 1.2
 
Date/Time
EST
Tmp

°C
App
Tmp
°C
Dew
Point
°C
Rel
Hum
%
Delta-T

°C
Wind Press
QNH
hPa
Press
MSL
hPa
Rain
since
9 am
mm
Dir
 
Spd
km/h
Gust
km/h
Spd
kts
Gust
kts
19/11:30pm 12.4 8.1 3.4 54 4.0 SSW 15 24 8 13 - - 1.2
19/11:00pm 12.8 8.2 3.7 54 4.1 SSW 17 28 9 15 - - 1.2
19/10:30pm 12.1 9.2 4.8 61 3.3 SSW 9 19 5 10 - - 1.2
19/10:00pm 11.4 9.0 5.3 66 2.8 SSW 7 11 4 6 - - 1.2

Latest Capital City Observations: Canberra | Sydney | Melbourne | Brisbane | Adelaide | Perth | Hobart | Darwin

Other Formats:

Comma delimited format used in spreadsheet applications
http://www.bom.gov.au/fwo/IDN60901/IDN60901.94763.axf

JavaScript Object Notation format (JSON) in row-major order
http://www.bom.gov.au/fwo/IDN60901/IDN60901.94763.json